States of Jersey

Home Log in

Channel Islands Terminal Aerodrome Forecasts (TAFs) issued Thursday, 23 February 2017

Jersey Airport - EGJJ

231058Z 2312/2321 30028G40KT 9999 FEW020 PROB30 TEMPO 2316/2321 7000 SHRA BKN015=

Guernsey Airport - EGJB

231058Z 2312/2321 30030G40KT 9999 FEW020 PROB30 TEMPO 2316/2321 7000 SHRA BKN015=

Alderney Airport - EGJA

231058Z 2312/2319 30030G45KT 9999 FEW020 PROB30 TEMPO 2316/2319 7000 SHRA BKN015=